Newton Field (59B)
Jackman, ME
Field Elevation: 1178
Lat: 45°37.38N  Long: 70°14.56W
CTAF/Unicom Freq: 122.9000
    
Weather Advisories
2019-11-13   15:53 Z
Altimeter 29.98" Hg
Wind 300° @ 13 KT
Gusts 26 KT
Visibility 4 SM
Ceiling --
Present Wx
Temperature -11° C (12° F)
Dewpoint -16° C (3° F)
Relative Humidity 68%
Density Altitude --
Condensation Altitude 3,400 feet
Precip Gauge
Wind Chill: -20° C (-4° F)
METAR 59B 131553Z AUTO 30013G26KT VIS 4 SM M11/M16 A2998